createdAt,value
2022-10-07T00:00:52.100Z,14.01
2022-10-07T00:03:21.055Z,13.87
2022-10-07T00:05:58.943Z,14.15
2022-10-07T00:08:25.745Z,13.85
2022-10-07T00:10:52.645Z,13.86
2022-10-07T00:13:19.534Z,14.00
2022-10-07T00:15:46.315Z,13.89
2022-10-07T00:18:13.223Z,13.57
2022-10-07T00:20:40.786Z,13.70
2022-10-07T00:23:08.147Z,13.71
2022-10-07T00:25:38.250Z,13.74
2022-10-07T00:28:05.843Z,13.88
2022-10-07T00:30:32.953Z,13.69
2022-10-07T00:32:59.895Z,13.79
2022-10-07T00:35:26.819Z,13.64
2022-10-07T00:37:54.347Z,13.70
2022-10-07T00:40:21.244Z,13.30
2022-10-07T00:42:48.052Z,13.31
2022-10-07T00:45:19.518Z,13.34
2022-10-07T00:47:49.755Z,13.10
2022-10-07T00:50:25.935Z,13.01
2022-10-07T00:52:59.702Z,13.17
2022-10-07T00:55:29.417Z,13.04
2022-10-07T00:58:01.558Z,12.87
2022-10-07T01:00:28.335Z,13.12
2022-10-07T01:02:55.332Z,13.03
2022-10-07T01:05:22.218Z,13.19
2022-10-07T01:07:50.917Z,13.15
2022-10-07T01:10:21.785Z,12.99
2022-10-07T01:13:07.063Z,13.19
2022-10-07T01:15:44.367Z,13.25
2022-10-07T01:18:21.226Z,13.40
2022-10-07T01:21:03.574Z,13.37
2022-10-07T01:23:56.271Z,13.40
2022-10-07T01:26:54.237Z,13.53
2022-10-07T01:29:55.991Z,13.63
2022-10-07T01:32:32.239Z,13.69
2022-10-07T01:35:01.976Z,13.65
2022-10-07T01:37:35.178Z,13.48
2022-10-07T01:40:07.497Z,13.57
2022-10-07T01:42:34.617Z,13.67
2022-10-07T01:45:03.156Z,13.54
2022-10-07T01:47:30.132Z,13.50
2022-10-07T01:49:56.980Z,13.41
2022-10-07T01:52:44.676Z,13.30
2022-10-07T01:55:50.408Z,13.27
2022-10-07T01:58:27.023Z,13.50
2022-10-07T02:01:06.455Z,13.29
2022-10-07T02:03:38.933Z,13.20
2022-10-07T02:06:06.020Z,13.46
2022-10-07T02:08:40.513Z,13.36
2022-10-07T02:11:23.658Z,13.23
2022-10-07T02:14:12.046Z,13.42
2022-10-07T02:16:48.350Z,13.43
2022-10-07T02:19:31.188Z,13.36
2022-10-07T02:22:02.153Z,13.47
2022-10-07T02:24:34.925Z,13.31
2022-10-07T02:27:13.974Z,13.28
2022-10-07T02:29:47.057Z,13.31
2022-10-07T02:32:19.986Z,13.02
2022-10-07T02:34:53.673Z,13.18
2022-10-07T02:37:25.646Z,13.29
2022-10-07T02:39:55.491Z,13.16
2022-10-07T02:42:39.576Z,13.09
2022-10-07T02:45:26.608Z,13.15
2022-10-07T02:48:21.484Z,13.05
2022-10-07T02:50:55.373Z,13.34
2022-10-07T02:53:29.096Z,13.08
2022-10-07T02:55:57.730Z,13.24
2022-10-07T02:58:26.633Z,13.34
2022-10-07T03:00:59.822Z,13.24
2022-10-07T03:03:27.777Z,13.51
2022-10-07T03:06:05.768Z,13.59
2022-10-07T03:08:35.344Z,13.47
2022-10-07T03:11:02.514Z,13.67
2022-10-07T03:13:31.330Z,13.59
2022-10-07T03:16:04.159Z,13.43
2022-10-07T03:18:32.383Z,13.37
2022-10-07T03:21:09.855Z,13.24
2022-10-07T03:23:38.035Z,12.98
2022-10-07T03:26:05.184Z,13.01
2022-10-07T03:28:37.697Z,12.79
2022-10-07T03:31:11.822Z,12.93
2022-10-07T03:33:43.962Z,12.99
2022-10-07T03:36:10.848Z,12.78
2022-10-07T03:38:40.519Z,12.62
2022-10-07T03:41:09.248Z,12.52
2022-10-07T03:43:36.062Z,12.77
2022-10-07T03:46:05.736Z,12.87
2022-10-07T03:48:35.433Z,12.96
2022-10-07T03:51:02.525Z,13.03
2022-10-07T03:53:31.519Z,12.86
2022-10-07T03:56:00.804Z,13.16
2022-10-07T03:58:29.688Z,12.84
2022-10-07T04:01:16.171Z,12.93
2022-10-07T04:03:53.771Z,12.92
2022-10-07T04:06:20.576Z,12.92
2022-10-07T04:08:52.986Z,12.94
2022-10-07T04:11:20.167Z,12.96
2022-10-07T04:13:48.134Z,12.98
2022-10-07T04:16:17.888Z,12.98
2022-10-07T04:18:45.427Z,12.72
2022-10-07T04:21:12.480Z,12.71
2022-10-07T04:23:41.307Z,12.70
2022-10-07T04:26:10.638Z,12.81
2022-10-07T04:28:42.008Z,12.87
2022-10-07T04:31:12.586Z,12.78
2022-10-07T04:33:42.564Z,12.79
2022-10-07T04:36:12.944Z,12.82
2022-10-07T04:38:54.620Z,12.94
2022-10-07T04:41:26.318Z,12.81
2022-10-07T04:43:57.667Z,12.95
2022-10-07T04:46:28.556Z,12.95
2022-10-07T04:49:10.685Z,13.16
2022-10-07T04:51:38.057Z,13.11
2022-10-07T04:54:05.533Z,13.14
2022-10-07T04:56:38.898Z,13.13
2022-10-07T04:59:08.321Z,12.67
2022-10-07T05:01:37.037Z,12.76
2022-10-07T05:04:04.269Z,12.59
2022-10-07T05:06:33.576Z,12.82
2022-10-07T05:09:00.751Z,13.12
2022-10-07T05:11:28.543Z,12.93
2022-10-07T05:14:05.280Z,13.59
2022-10-07T05:16:33.024Z,13.31
2022-10-07T05:19:00.149Z,13.63
2022-10-07T05:21:27.786Z,13.56
2022-10-07T05:23:54.722Z,13.73
2022-10-07T05:26:28.048Z,13.82
2022-10-07T05:28:58.410Z,13.60
2022-10-07T05:31:31.682Z,13.66
2022-10-07T05:34:03.069Z,13.95
2022-10-07T05:36:30.545Z,13.92
2022-10-07T05:38:59.509Z,14.17
2022-10-07T05:41:45.659Z,14.12
2022-10-07T05:44:16.690Z,14.24
2022-10-07T05:46:44.225Z,14.43
2022-10-07T05:49:12.696Z,14.56
2022-10-07T05:51:40.722Z,14.70
2022-10-07T05:54:08.572Z,14.81
2022-10-07T05:56:39.810Z,14.84
2022-10-07T05:59:06.741Z,14.92
2022-10-07T06:01:34.352Z,14.96
2022-10-07T06:04:08.205Z,15.11
2022-10-07T06:06:38.852Z,15.28
2022-10-07T06:09:27.637Z,15.50
2022-10-07T06:12:14.377Z,16.05
2022-10-07T06:14:42.246Z,16.63
2022-10-07T06:17:09.827Z,17.08
2022-10-07T06:19:38.301Z,17.51
2022-10-07T06:22:05.500Z,18.05
2022-10-07T06:24:35.311Z,18.40
2022-10-07T06:27:02.891Z,18.74
2022-10-07T06:29:30.634Z,18.71
2022-10-07T06:31:58.037Z,18.55
2022-10-07T06:34:25.926Z,18.79
2022-10-07T06:36:54.681Z,18.81
2022-10-07T06:39:21.725Z,18.84
2022-10-07T06:41:52.451Z,18.85
2022-10-07T06:44:33.178Z,19.26
2022-10-07T06:47:01.177Z,19.59
2022-10-07T06:49:28.012Z,19.90
2022-10-07T06:51:54.915Z,20.20
2022-10-07T06:54:22.336Z,20.25
2022-10-07T06:56:49.418Z,20.09
2022-10-07T06:59:17.216Z,19.95
2022-10-07T07:01:54.452Z,20.14
2022-10-07T07:04:23.144Z,20.18
2022-10-07T07:06:50.169Z,20.39
2022-10-07T07:09:17.077Z,20.50
2022-10-07T07:11:46.196Z,20.74
2022-10-07T07:14:20.005Z,20.80
2022-10-07T07:17:00.005Z,20.97
2022-10-07T07:19:27.515Z,21.05
2022-10-07T07:21:55.678Z,21.19
2022-10-07T07:24:24.647Z,21.31
2022-10-07T07:26:52.379Z,21.44
2022-10-07T07:29:20.774Z,21.59
2022-10-07T07:31:52.470Z,21.54
2022-10-07T07:34:22.100Z,21.75
2022-10-07T07:36:53.549Z,21.70
2022-10-07T07:39:24.520Z,22.04
2022-10-07T07:41:57.889Z,22.21
2022-10-07T07:44:25.949Z,22.15
2022-10-07T07:46:56.215Z,22.20
2022-10-07T07:49:24.621Z,22.36
2022-10-07T07:51:52.310Z,22.55
2022-10-07T07:54:27.265Z,22.30
2022-10-07T07:56:56.216Z,22.30
2022-10-07T07:59:25.419Z,22.18
2022-10-07T08:01:55.630Z,22.45
2022-10-07T08:04:22.909Z,22.49
2022-10-07T08:06:50.540Z,22.70
2022-10-07T08:09:17.811Z,22.93
2022-10-07T08:11:47.075Z,22.92
2022-10-07T08:14:17.606Z,23.19
2022-10-07T08:16:47.440Z,23.26
2022-10-07T08:19:15.406Z,23.30
2022-10-07T08:21:42.617Z,23.38
2022-10-07T08:24:14.889Z,23.43
2022-10-07T08:26:41.783Z,23.35
2022-10-07T08:29:13.358Z,23.68
2022-10-07T08:31:42.516Z,23.57
2022-10-07T08:34:10.979Z,23.59
2022-10-07T08:36:38.276Z,23.86
2022-10-07T08:39:05.703Z,23.87
2022-10-07T08:41:45.875Z,24.17
2022-10-07T08:44:18.487Z,23.94
2022-10-07T08:47:01.030Z,24.00
2022-10-07T08:49:36.663Z,24.30
2022-10-07T08:52:21.053Z,24.45
2022-10-07T08:54:47.996Z,24.59
2022-10-07T08:57:31.463Z,24.60
2022-10-07T09:00:05.734Z,24.75
2022-10-07T09:02:58.958Z,24.85
2022-10-07T09:05:29.850Z,25.05
2022-10-07T09:08:01.452Z,25.47
2022-10-07T09:10:49.687Z,25.71
2022-10-07T09:13:21.403Z,25.59
2022-10-07T09:16:26.619Z,25.11
2022-10-07T09:18:56.993Z,25.39
2022-10-07T09:21:41.810Z,25.71
2022-10-07T09:24:23.249Z,25.54
2022-10-07T09:26:55.327Z,25.30
2022-10-07T09:29:28.937Z,25.53
2022-10-07T09:31:58.248Z,25.63
2022-10-07T09:34:28.015Z,25.54
2022-10-07T09:37:19.291Z,25.83
2022-10-07T09:39:49.576Z,25.62
2022-10-07T09:42:40.038Z,25.54
2022-10-07T09:45:26.236Z,25.73
2022-10-07T09:48:17.731Z,25.93
2022-10-07T09:50:46.776Z,26.25
2022-10-07T09:53:29.032Z,26.25
2022-10-07T09:55:55.971Z,26.31
2022-10-07T09:58:31.213Z,26.52
2022-10-07T10:01:02.133Z,26.04
2022-10-07T10:03:35.298Z,26.19
2022-10-07T10:06:04.990Z,26.28
2022-10-07T10:08:35.437Z,26.27
2022-10-07T10:11:20.981Z,26.67
2022-10-07T10:13:50.112Z,26.33
2022-10-07T10:16:28.970Z,26.44
2022-10-07T10:19:02.253Z,26.62
2022-10-07T10:21:30.706Z,26.41
2022-10-07T10:24:06.112Z,26.55
2022-10-07T10:26:48.509Z,25.92
2022-10-07T10:29:38.924Z,26.00
2022-10-07T10:32:17.003Z,26.74
2022-10-07T10:35:09.905Z,26.67
2022-10-07T10:38:11.050Z,26.62
2022-10-07T10:40:47.853Z,27.06
2022-10-07T10:43:16.516Z,27.25
2022-10-07T10:46:07.987Z,27.07
2022-10-07T10:48:53.211Z,27.15
2022-10-07T10:51:38.229Z,27.19
2022-10-07T10:54:38.888Z,27.55
2022-10-07T10:57:29.331Z,27.34
2022-10-07T11:00:13.303Z,27.19
2022-10-07T11:02:40.897Z,26.45
2022-10-07T11:05:17.512Z,26.70
2022-10-07T11:07:51.093Z,27.53
2022-10-07T11:10:30.176Z,27.86
2022-10-07T11:13:35.702Z,27.99
2022-10-07T11:16:11.863Z,28.43
2022-10-07T11:18:47.065Z,28.47
2022-10-07T11:21:20.954Z,28.39
2022-10-07T11:24:16.890Z,28.33
2022-10-07T11:26:53.866Z,28.34
2022-10-07T11:29:33.961Z,28.38
2022-10-07T11:32:48.086Z,28.31
2022-10-07T11:35:34.677Z,28.67
2022-10-07T11:38:10.578Z,28.68
2022-10-07T11:40:49.144Z,28.18
2022-10-07T11:43:58.351Z,27.99
2022-10-07T11:46:40.754Z,27.94
2022-10-07T11:49:20.990Z,27.86
2022-10-07T11:51:57.887Z,27.62
2022-10-07T11:54:29.489Z,27.68
2022-10-07T11:56:58.489Z,27.25
2022-10-07T12:00:08.184Z,27.52
2022-10-07T12:02:46.246Z,27.80
2022-10-07T12:05:34.758Z,27.77
2022-10-07T12:08:23.893Z,27.98
2022-10-07T12:10:55.933Z,27.69
2022-10-07T12:13:22.719Z,27.95
2022-10-07T12:15:50.945Z,27.69
2022-10-07T12:18:27.714Z,27.48
2022-10-07T12:20:58.650Z,27.83
2022-10-07T12:23:32.316Z,27.66
2022-10-07T12:26:26.118Z,27.74
2022-10-07T12:28:53.713Z,27.92
2022-10-07T12:31:23.686Z,28.28
2022-10-07T12:33:58.082Z,28.33
2022-10-07T12:36:31.252Z,28.17
2022-10-07T12:39:01.557Z,28.32
2022-10-07T12:41:39.726Z,28.28
2022-10-07T12:44:22.887Z,28.30
2022-10-07T12:46:50.982Z,28.26
2022-10-07T12:49:23.677Z,28.14
2022-10-07T12:51:53.953Z,27.88
2022-10-07T12:54:51.660Z,27.88
2022-10-07T12:57:23.996Z,28.14
2022-10-07T13:00:01.602Z,28.27
2022-10-07T13:02:50.285Z,27.88
2022-10-07T13:05:32.210Z,27.76
2022-10-07T13:08:17.325Z,27.62
2022-10-07T13:10:55.331Z,27.19
2022-10-07T13:13:29.573Z,27.46
2022-10-07T13:16:02.460Z,27.27
2022-10-07T13:18:45.192Z,27.10
2022-10-07T13:21:27.519Z,26.87
2022-10-07T13:23:56.142Z,26.87
2022-10-07T13:26:26.003Z,27.32
2022-10-07T13:28:58.656Z,27.28
2022-10-07T13:31:31.106Z,27.14
2022-10-07T13:33:59.974Z,26.92
2022-10-07T13:36:33.079Z,26.95
2022-10-07T13:39:23.226Z,27.08
2022-10-07T13:41:55.572Z,27.31
2022-10-07T13:44:25.990Z,27.41
2022-10-07T13:47:00.236Z,27.15
2022-10-07T13:49:41.103Z,27.15
2022-10-07T13:52:35.501Z,26.99
2022-10-07T13:55:02.570Z,26.96
2022-10-07T13:57:31.381Z,26.41
2022-10-07T14:00:00.037Z,26.41
2022-10-07T14:02:27.955Z,26.01
2022-10-07T14:05:18.921Z,26.06
2022-10-07T14:07:45.751Z,25.82
2022-10-07T14:10:13.699Z,25.95
2022-10-07T14:12:50.061Z,26.12
2022-10-07T14:15:26.359Z,25.84
2022-10-07T14:17:55.310Z,25.87
2022-10-07T14:20:33.284Z,25.57
2022-10-07T14:23:06.111Z,25.49
2022-10-07T14:25:49.229Z,25.66
2022-10-07T14:28:25.123Z,25.45
2022-10-07T14:31:26.031Z,24.92
2022-10-07T14:34:35.618Z,24.84
2022-10-07T14:37:13.389Z,24.91
2022-10-07T14:39:42.594Z,24.93
2022-10-07T14:42:16.797Z,24.98
2022-10-07T14:44:44.565Z,24.51
2022-10-07T14:47:21.017Z,24.62
2022-10-07T14:49:48.510Z,24.34
2022-10-07T14:52:30.027Z,24.52
2022-10-07T14:55:03.297Z,24.24
2022-10-07T14:57:30.268Z,23.97
2022-10-07T14:59:57.104Z,23.88
2022-10-07T15:02:24.044Z,23.73
2022-10-07T15:04:50.923Z,23.68
2022-10-07T15:07:17.909Z,23.69
2022-10-07T15:09:45.744Z,23.35
2022-10-07T15:12:14.926Z,23.34
2022-10-07T15:14:42.203Z,23.34
2022-10-07T15:17:12.281Z,23.23
2022-10-07T15:19:39.281Z,23.10
2022-10-07T15:22:06.231Z,23.02
2022-10-07T15:24:34.247Z,22.94
2022-10-07T15:27:01.591Z,22.88
2022-10-07T15:29:28.471Z,22.86
2022-10-07T15:31:55.362Z,22.78
2022-10-07T15:34:22.818Z,22.60
2022-10-07T15:36:50.363Z,22.57
2022-10-07T15:39:17.315Z,22.51
2022-10-07T15:41:44.362Z,22.34
2022-10-07T15:44:16.233Z,22.11
2022-10-07T15:46:46.007Z,22.03
2022-10-07T15:49:12.995Z,21.99
2022-10-07T15:51:40.188Z,21.86
2022-10-07T15:54:07.277Z,21.80
2022-10-07T15:56:34.498Z,21.86
2022-10-07T15:59:02.211Z,21.81
2022-10-07T16:01:32.024Z,21.77
2022-10-07T16:04:00.738Z,21.87
2022-10-07T16:06:32.419Z,21.86
2022-10-07T16:09:00.203Z,21.83
2022-10-07T16:11:28.751Z,21.64
2022-10-07T16:13:55.687Z,21.49
2022-10-07T16:16:25.006Z,21.56
2022-10-07T16:18:53.944Z,21.63
2022-10-07T16:21:30.019Z,21.55
2022-10-07T16:23:59.193Z,21.58
2022-10-07T16:26:30.108Z,21.58
2022-10-07T16:29:19.455Z,21.67
2022-10-07T16:31:47.677Z,21.63
2022-10-07T16:34:16.547Z,21.57
2022-10-07T16:36:46.229Z,21.65
2022-10-07T16:39:13.538Z,21.50
2022-10-07T16:41:44.196Z,21.34
2022-10-07T16:44:11.387Z,21.35
2022-10-07T16:46:38.866Z,21.25
2022-10-07T16:49:07.745Z,21.32
2022-10-07T16:51:36.785Z,21.30
2022-10-07T16:54:07.392Z,21.26
2022-10-07T16:56:36.097Z,21.08
2022-10-07T16:59:05.639Z,21.04
2022-10-07T17:01:33.375Z,21.07
2022-10-07T17:04:01.379Z,21.04
2022-10-07T17:06:30.265Z,20.95
2022-10-07T17:09:04.326Z,21.08
2022-10-07T17:11:36.157Z,20.87
2022-10-07T17:14:04.970Z,20.74
2022-10-07T17:16:37.936Z,20.79
2022-10-07T17:19:06.472Z,20.41
2022-10-07T17:21:38.070Z,20.10
2022-10-07T17:24:05.165Z,20.00
2022-10-07T17:26:32.221Z,19.97
2022-10-07T17:29:06.651Z,20.07
2022-10-07T17:31:35.854Z,20.10
2022-10-07T17:34:05.512Z,20.01
2022-10-07T17:36:33.032Z,20.01
2022-10-07T17:38:59.959Z,19.81
2022-10-07T17:41:38.207Z,19.64
2022-10-07T17:44:10.409Z,19.54
2022-10-07T17:46:39.396Z,19.40
2022-10-07T17:49:08.760Z,19.67
2022-10-07T17:51:37.355Z,19.67
2022-10-07T17:54:06.135Z,19.61
2022-10-07T17:56:34.720Z,19.66
2022-10-07T17:59:02.763Z,19.51
2022-10-07T18:01:32.951Z,19.51
2022-10-07T18:04:26.160Z,19.08
2022-10-07T18:06:53.132Z,18.85
2022-10-07T18:09:22.155Z,18.78
2022-10-07T18:12:07.749Z,18.99
2022-10-07T18:14:54.372Z,19.09
2022-10-07T18:17:21.902Z,19.17
2022-10-07T18:19:48.744Z,19.14
2022-10-07T18:22:15.576Z,18.81
2022-10-07T18:24:42.577Z,18.88
2022-10-07T18:27:09.457Z,18.96
2022-10-07T18:29:38.198Z,18.81
2022-10-07T18:32:08.396Z,18.59
2022-10-07T18:34:35.539Z,18.58
2022-10-07T18:37:02.709Z,18.64
2022-10-07T18:39:29.896Z,18.64
2022-10-07T18:41:58.021Z,18.49
2022-10-07T18:44:25.725Z,18.53
2022-10-07T18:46:53.334Z,18.43
2022-10-07T18:49:20.233Z,18.50
2022-10-07T18:51:47.404Z,18.53
2022-10-07T18:54:14.302Z,18.47
2022-10-07T18:56:41.764Z,18.37
2022-10-07T18:59:10.326Z,18.19
2022-10-07T19:01:37.843Z,18.21
2022-10-07T19:04:06.732Z,17.93
2022-10-07T19:06:36.515Z,17.90
2022-10-07T19:09:09.063Z,17.72
2022-10-07T19:11:36.257Z,17.68
2022-10-07T19:14:03.462Z,17.55
2022-10-07T19:16:35.688Z,17.77
2022-10-07T19:19:08.813Z,17.47
2022-10-07T19:21:36.144Z,17.82
2022-10-07T19:24:04.493Z,17.85
2022-10-07T19:26:37.580Z,17.83
2022-10-07T19:29:06.462Z,17.65
2022-10-07T19:31:40.427Z,17.74
2022-10-07T19:34:10.328Z,17.70
2022-10-07T19:36:40.231Z,17.62
2022-10-07T19:39:08.149Z,17.35
2022-10-07T19:41:36.105Z,17.44
2022-10-07T19:44:04.534Z,17.60
2022-10-07T19:46:33.500Z,17.40
2022-10-07T19:49:02.553Z,17.56
2022-10-07T19:51:31.437Z,17.37
2022-10-07T19:54:00.084Z,17.04
2022-10-07T19:56:31.763Z,17.27
2022-10-07T19:59:01.110Z,17.16
2022-10-07T20:01:32.320Z,17.13
2022-10-07T20:04:13.959Z,17.07
2022-10-07T20:06:41.681Z,17.20
2022-10-07T20:09:11.570Z,16.99
2022-10-07T20:11:38.421Z,16.90
2022-10-07T20:14:06.729Z,16.92
2022-10-07T20:16:34.702Z,16.84
2022-10-07T20:19:05.739Z,16.56
2022-10-07T20:21:35.627Z,16.57
2022-10-07T20:24:03.017Z,16.46
2022-10-07T20:26:35.294Z,16.16
2022-10-07T20:29:04.446Z,16.16
2022-10-07T20:31:35.098Z,16.16
2022-10-07T20:34:02.732Z,16.40
2022-10-07T20:36:32.099Z,16.37
2022-10-07T20:39:19.069Z,16.38
2022-10-07T20:42:08.335Z,16.35
2022-10-07T20:44:36.749Z,16.24
2022-10-07T20:47:08.625Z,16.08
2022-10-07T20:49:37.505Z,16.09
2022-10-07T20:52:07.228Z,16.25
2022-10-07T20:54:34.275Z,16.20
2022-10-07T20:57:01.127Z,16.36
2022-10-07T20:59:30.372Z,16.05
2022-10-07T21:01:58.347Z,16.02
2022-10-07T21:04:27.211Z,16.19
2022-10-07T21:06:57.744Z,16.30
2022-10-07T21:09:26.185Z,16.28
2022-10-07T21:11:54.342Z,16.37
2022-10-07T21:14:21.341Z,15.92
2022-10-07T21:16:48.670Z,15.92
2022-10-07T21:19:17.179Z,15.85
2022-10-07T21:21:44.127Z,15.75
2022-10-07T21:24:11.008Z,15.85
2022-10-07T21:26:38.234Z,15.90
2022-10-07T21:29:08.183Z,16.09
2022-10-07T21:31:35.853Z,16.06
2022-10-07T21:34:10.399Z,15.87
2022-10-07T21:36:49.158Z,15.65
2022-10-07T21:39:17.472Z,15.81
2022-10-07T21:41:44.298Z,15.78
2022-10-07T21:44:13.052Z,15.62
2022-10-07T21:46:42.770Z,15.65
2022-10-07T21:49:09.995Z,15.63
2022-10-07T21:51:37.018Z,15.68
2022-10-07T21:54:04.817Z,15.80
2022-10-07T21:56:33.406Z,15.53
2022-10-07T21:59:01.503Z,15.46
2022-10-07T22:01:28.766Z,15.49
2022-10-07T22:03:57.739Z,15.37
2022-10-07T22:06:45.575Z,15.24
2022-10-07T22:09:14.007Z,15.21
2022-10-07T22:11:41.079Z,15.33
2022-10-07T22:14:12.295Z,15.06
2022-10-07T22:16:40.672Z,14.99
2022-10-07T22:19:07.944Z,15.14
2022-10-07T22:21:39.273Z,15.01
2022-10-07T22:24:07.670Z,14.63
2022-10-07T22:26:45.488Z,14.75
2022-10-07T22:29:14.728Z,14.37
2022-10-07T22:31:41.959Z,14.33
2022-10-07T22:34:08.793Z,14.36
2022-10-07T22:36:36.960Z,14.33
2022-10-07T22:39:04.066Z,14.46
2022-10-07T22:41:31.035Z,14.32
2022-10-07T22:43:59.168Z,14.31
2022-10-07T22:46:28.310Z,14.48
2022-10-07T22:48:57.556Z,14.49
2022-10-07T22:51:27.023Z,14.39
2022-10-07T22:53:55.378Z,14.37
2022-10-07T22:56:23.885Z,14.24
2022-10-07T22:58:53.769Z,13.96
2022-10-07T23:01:21.973Z,13.89
2022-10-07T23:03:48.924Z,13.78
2022-10-07T23:06:18.651Z,13.97
2022-10-07T23:08:47.014Z,13.99
2022-10-07T23:11:17.066Z,13.51
2022-10-07T23:13:44.048Z,13.49
2022-10-07T23:16:13.040Z,13.48
2022-10-07T23:18:42.715Z,13.69
2022-10-07T23:21:14.108Z,13.84
2022-10-07T23:23:43.211Z,13.85
2022-10-07T23:26:11.979Z,13.90
2022-10-07T23:28:39.411Z,13.67
2022-10-07T23:31:08.457Z,13.74
2022-10-07T23:33:36.628Z,13.72
2022-10-07T23:36:05.859Z,13.70
2022-10-07T23:38:33.606Z,13.94
2022-10-07T23:41:01.228Z,13.86
2022-10-07T23:43:31.827Z,14.09
2022-10-07T23:46:02.037Z,14.06
2022-10-07T23:48:29.098Z,13.98
2022-10-07T23:50:56.015Z,14.14
2022-10-07T23:53:23.347Z,13.95
2022-10-07T23:55:53.062Z,13.83
2022-10-07T23:58:21.974Z,13.85
